createdAt,value
2018-02-21T00:00:31.162Z,43.07
2018-02-21T00:03:32.514Z,42.17
2018-02-21T00:06:34.799Z,39.03
2018-02-21T00:09:36.150Z,41.10
2018-02-21T00:12:38.462Z,40.30
2018-02-21T00:15:40.691Z,42.53
2018-02-21T00:18:41.988Z,41.93
2018-02-21T00:21:44.369Z,40.77
2018-02-21T00:24:45.744Z,42.80
2018-02-21T00:27:48.087Z,41.23
2018-02-21T00:30:51.088Z,42.27
2018-02-21T00:33:52.486Z,43.37
2018-02-21T00:36:54.854Z,41.67
2018-02-21T00:39:57.090Z,41.37
2018-02-21T00:42:58.428Z,41.50
2018-02-21T00:46:00.210Z,44.63
2018-02-21T00:49:02.284Z,43.87
2018-02-21T00:52:03.626Z,43.97
2018-02-21T00:55:04.975Z,43.43
2018-02-21T00:58:07.090Z,43.97
2018-02-21T01:01:08.411Z,45.27
2018-02-21T01:04:09.744Z,42.83
2018-02-21T01:07:11.086Z,44.73
2018-02-21T01:10:12.431Z,42.27
2018-02-21T01:13:13.766Z,42.63
2018-02-21T01:16:15.838Z,43.00
2018-02-21T01:19:17.152Z,44.27
2018-02-21T01:22:18.471Z,45.33
2018-02-21T01:25:19.779Z,42.90
2018-02-21T01:28:21.215Z,42.20
2018-02-21T01:31:22.547Z,42.53
2018-02-21T01:34:23.869Z,42.77
2018-02-21T01:37:25.171Z,45.20
2018-02-21T01:40:26.531Z,42.07
2018-02-21T01:43:27.847Z,43.07
2018-02-21T01:46:29.174Z,43.00
2018-02-21T01:49:30.498Z,40.10
2018-02-21T01:52:31.843Z,39.27
2018-02-21T01:55:33.144Z,41.10
2018-02-21T01:58:34.474Z,39.17
2018-02-21T02:01:36.582Z,40.47
2018-02-21T02:04:38.686Z,41.37
2018-02-21T02:07:40.759Z,41.30
2018-02-21T02:10:42.094Z,42.23
2018-02-21T02:13:43.396Z,40.30
2018-02-21T02:16:44.747Z,43.27
2018-02-21T02:19:46.082Z,40.90
2018-02-21T02:22:47.414Z,41.47
2018-02-21T02:25:48.735Z,45.50
2018-02-21T02:28:50.051Z,40.77
2018-02-21T02:31:51.337Z,40.60
2018-02-21T02:34:52.680Z,39.57
2018-02-21T02:37:53.968Z,40.20
2018-02-21T02:40:56.048Z,38.13
2018-02-21T02:43:57.364Z,39.17
2018-02-21T02:46:58.714Z,41.63
2018-02-21T02:50:00.083Z,41.13
2018-02-21T02:53:01.447Z,39.30
2018-02-21T02:56:02.789Z,39.17
2018-02-21T02:59:04.150Z,38.40
2018-02-21T03:07:44.439Z,41.40
2018-02-21T03:10:46.495Z,42.20
2018-02-21T03:13:47.816Z,39.60
2018-02-21T03:16:49.865Z,41.67
2018-02-21T03:19:51.188Z,43.03
2018-02-21T03:22:53.235Z,42.40
2018-02-21T03:25:54.556Z,39.90
2018-02-21T03:28:56.606Z,45.87
2018-02-21T03:31:57.903Z,41.83
2018-02-21T03:34:59.231Z,40.87
2018-02-21T03:38:00.562Z,38.90
2018-02-21T03:41:01.884Z,43.80
2018-02-21T03:44:03.954Z,41.80
2018-02-21T03:47:05.279Z,44.53
2018-02-21T03:50:06.640Z,40.20
2018-02-21T03:53:08.707Z,41.30
2018-02-21T03:56:10.080Z,40.47
2018-02-21T03:59:11.372Z,41.57
2018-02-21T04:02:12.709Z,44.57
2018-02-21T04:05:14.044Z,41.07
2018-02-21T04:08:15.403Z,42.90
2018-02-21T04:11:16.746Z,42.43
2018-02-21T04:14:18.083Z,42.10
2018-02-21T04:17:20.189Z,41.60
2018-02-21T04:20:22.305Z,43.17
2018-02-21T04:23:23.642Z,40.87
2018-02-21T04:26:25.006Z,43.87
2018-02-21T04:29:26.315Z,45.17
2018-02-21T04:32:27.659Z,45.43
2018-02-21T04:35:29.004Z,44.13
2018-02-21T04:38:30.367Z,43.63
2018-02-21T04:41:31.734Z,45.07
2018-02-21T04:44:33.073Z,46.17
2018-02-21T04:47:34.426Z,47.47
2018-02-21T04:50:36.504Z,43.33
2018-02-21T04:53:37.839Z,46.73
2018-02-21T04:56:49.132Z,46.60
2018-02-21T04:59:56.461Z,44.40
2018-02-21T05:02:57.822Z,45.40
2018-02-21T05:05:59.162Z,46.97
2018-02-21T05:09:00.496Z,47.10
2018-02-21T05:12:01.791Z,47.97
2018-02-21T05:15:03.198Z,48.07
2018-02-21T05:18:04.563Z,50.40
2018-02-21T05:21:05.884Z,50.57
2018-02-21T05:24:07.987Z,51.33
2018-02-21T05:27:10.086Z,48.77
2018-02-21T05:30:12.151Z,52.30
2018-02-21T05:33:13.508Z,52.70
2018-02-21T05:36:14.886Z,49.17
2018-02-21T05:39:16.247Z,52.30
2018-02-21T05:42:17.582Z,50.47
2018-02-21T05:45:18.946Z,50.67
2018-02-21T05:48:20.276Z,52.17
2018-02-21T05:51:22.341Z,52.60
2018-02-21T05:54:23.663Z,52.50
2018-02-21T05:57:25.016Z,54.47
2018-02-21T06:00:26.382Z,50.00
2018-02-21T06:03:27.703Z,51.17
2018-02-21T06:06:29.016Z,53.60
2018-02-21T06:09:30.328Z,52.70
2018-02-21T06:12:31.657Z,52.67
2018-02-21T06:15:32.991Z,53.47
2018-02-21T06:18:34.461Z,52.63
2018-02-21T06:21:35.783Z,54.17
2018-02-21T06:24:37.835Z,56.03
2018-02-21T06:27:39.156Z,53.97
2018-02-21T06:30:41.267Z,54.40
2018-02-21T06:33:42.618Z,56.13
2018-02-21T06:36:43.911Z,56.80
2018-02-21T06:39:45.988Z,55.30
2018-02-21T06:42:47.318Z,57.20
2018-02-21T06:45:48.651Z,55.00
2018-02-21T06:51:58.090Z,53.67
2018-02-21T06:55:00.207Z,57.30
2018-02-21T06:58:01.538Z,57.60
2018-02-21T07:01:02.977Z,56.57
2018-02-21T07:04:04.304Z,55.93
2018-02-21T07:07:05.630Z,56.83
2018-02-21T07:10:06.994Z,56.60
2018-02-21T07:13:08.294Z,53.43
2018-02-21T07:16:09.612Z,57.00
2018-02-21T07:19:10.934Z,55.37
2018-02-21T07:22:12.963Z,53.73
2018-02-21T07:25:14.265Z,58.53
2018-02-21T07:28:22.562Z,55.03
2018-02-21T07:31:23.856Z,57.13
2018-02-21T07:34:25.155Z,57.13
2018-02-21T07:37:26.440Z,53.83
2018-02-21T07:40:27.770Z,56.10
2018-02-21T07:43:29.094Z,55.90
2018-02-21T07:46:30.431Z,59.33
2018-02-21T07:49:32.460Z,58.00
2018-02-21T07:52:33.887Z,55.37
2018-02-21T07:55:35.179Z,59.37
2018-02-21T07:58:37.333Z,61.07
2018-02-21T08:01:38.659Z,58.80
2018-02-21T08:04:40.743Z,59.60
2018-02-21T08:07:42.144Z,60.60
2018-02-21T08:10:44.270Z,61.90
2018-02-21T08:13:45.579Z,60.23
2018-02-21T08:16:46.945Z,62.20
2018-02-21T08:19:48.278Z,57.80
2018-02-21T08:22:50.514Z,61.07
2018-02-21T08:25:51.840Z,60.17
2018-02-21T08:28:53.216Z,60.37
2018-02-21T08:31:54.524Z,61.87
2018-02-21T08:34:56.655Z,63.37
2018-02-21T08:37:58.106Z,58.90
2018-02-21T08:41:00.348Z,65.70
2018-02-21T08:44:01.721Z,62.07
2018-02-21T08:47:03.308Z,59.90
2018-02-21T08:50:04.668Z,66.93
2018-02-21T08:53:06.101Z,60.67
2018-02-21T08:56:07.489Z,58.67
2018-02-21T08:59:08.988Z,63.27
2018-02-21T09:02:10.480Z,63.80
2018-02-21T09:05:11.903Z,59.20
2018-02-21T09:08:13.315Z,60.20
2018-02-21T09:11:14.722Z,59.73
2018-02-21T09:14:16.113Z,58.13
2018-02-21T09:17:17.503Z,57.97
2018-02-21T09:20:19.631Z,55.40
2018-02-21T09:23:21.012Z,57.33
2018-02-21T09:29:54.321Z,49.40
2018-02-21T09:32:55.665Z,49.60
2018-02-21T09:35:57.006Z,52.37
2018-02-21T09:38:58.428Z,55.57
2018-02-21T09:42:00.113Z,57.23
2018-02-21T09:45:01.478Z,53.77
2018-02-21T09:48:03.602Z,54.07
2018-02-21T09:51:04.979Z,51.83
2018-02-21T09:54:06.351Z,51.63
2018-02-21T09:57:08.466Z,50.40
2018-02-21T10:00:09.851Z,44.50
2018-02-21T10:03:11.229Z,46.30
2018-02-21T10:06:12.710Z,47.30
2018-02-21T10:09:15.113Z,46.13
2018-02-21T10:12:46.676Z,44.43
2018-02-21T10:15:48.151Z,45.67
2018-02-21T10:18:49.500Z,46.70
2018-02-21T10:21:51.007Z,48.90
2018-02-21T10:24:52.431Z,45.97
2018-02-21T10:27:54.775Z,46.00
2018-02-21T10:30:56.319Z,42.33
2018-02-21T10:33:57.721Z,42.80
2018-02-21T10:36:59.377Z,42.50
2018-02-21T10:40:01.683Z,40.33
2018-02-21T10:43:04.015Z,41.83
2018-02-21T10:46:05.508Z,38.63
2018-02-21T10:49:06.959Z,38.23
2018-02-21T10:52:09.172Z,36.27
2018-02-21T10:55:10.705Z,33.07
2018-02-21T10:58:12.268Z,33.87
2018-02-21T11:01:19.851Z,34.47
2018-02-21T11:04:21.476Z,34.53
2018-02-21T11:07:22.950Z,34.57
2018-02-21T11:10:24.329Z,35.00
2018-02-21T11:13:25.822Z,34.10
2018-02-21T11:16:27.164Z,33.27
2018-02-21T11:19:29.368Z,31.37
2018-02-21T11:22:31.485Z,29.73
2018-02-21T11:25:33.562Z,30.63
2018-02-21T11:28:34.931Z,30.60
2018-02-21T11:31:36.301Z,30.57
2018-02-21T11:34:37.614Z,32.57
2018-02-21T11:37:39.007Z,29.90
2018-02-21T11:40:40.299Z,29.20
2018-02-21T11:43:41.644Z,29.47
2018-02-21T11:46:43.688Z,29.93
2018-02-21T11:49:45.096Z,31.93
2018-02-21T11:52:46.472Z,30.13
2018-02-21T11:55:48.244Z,28.77
2018-02-21T11:58:49.607Z,27.70
2018-02-21T12:01:51.459Z,28.83
2018-02-21T12:04:53.585Z,26.63
2018-02-21T12:07:54.977Z,28.70
2018-02-21T12:10:56.276Z,27.20
2018-02-21T12:13:57.606Z,24.97
2018-02-21T12:16:59.667Z,28.73
2018-02-21T12:20:01.007Z,26.57
2018-02-21T12:23:03.226Z,31.60
2018-02-21T12:26:04.574Z,22.77
2018-02-21T12:29:06.654Z,25.80
2018-02-21T12:32:09.788Z,25.23
2018-02-21T12:35:11.848Z,24.20
2018-02-21T12:38:13.187Z,26.57
2018-02-21T12:41:20.687Z,26.23
2018-02-21T12:44:22.003Z,24.50
2018-02-21T12:47:23.327Z,26.00
2018-02-21T12:50:24.679Z,25.93
2018-02-21T12:53:26.022Z,25.90
2018-02-21T12:56:27.400Z,28.23
2018-02-21T12:59:29.473Z,27.43
2018-02-21T13:02:30.829Z,28.63
2018-02-21T13:05:32.171Z,30.27
2018-02-21T13:08:33.542Z,27.97
2018-02-21T13:11:35.587Z,28.43
2018-02-21T13:14:36.928Z,27.50
2018-02-21T13:17:38.294Z,26.70
2018-02-21T13:20:40.399Z,26.73
2018-02-21T13:23:42.471Z,27.13
2018-02-21T13:26:43.834Z,28.87
2018-02-21T13:29:45.161Z,27.00
2018-02-21T13:32:47.250Z,28.33
2018-02-21T13:35:49.340Z,28.10
2018-02-21T13:38:50.675Z,27.63
2018-02-21T13:41:52.004Z,29.30
2018-02-21T13:44:54.108Z,28.20
2018-02-21T13:47:56.219Z,28.60
2018-02-21T13:50:57.616Z,29.63
2018-02-21T13:53:58.940Z,26.70
2018-02-21T13:57:00.266Z,27.37
2018-02-21T14:00:01.608Z,27.30
2018-02-21T14:03:02.941Z,28.23
2018-02-21T14:06:04.268Z,29.10
2018-02-21T14:09:05.619Z,27.27
2018-02-21T14:12:06.955Z,27.60
2018-02-21T14:15:09.004Z,29.57
2018-02-21T14:18:10.343Z,29.57
2018-02-21T14:21:11.710Z,30.17
2018-02-21T14:24:13.039Z,29.43
2018-02-21T14:27:14.437Z,26.13
2018-02-21T14:30:37.620Z,28.07
2018-02-21T14:33:38.991Z,27.70
2018-02-21T14:36:40.348Z,28.00
2018-02-21T14:39:41.678Z,27.87
2018-02-21T14:42:43.081Z,27.00
2018-02-21T14:45:44.348Z,27.60
2018-02-21T14:48:45.685Z,27.90
2018-02-21T14:51:47.024Z,26.07
2018-02-21T14:54:49.109Z,28.23
2018-02-21T14:57:51.180Z,27.60
2018-02-21T15:00:52.519Z,28.87
2018-02-21T15:03:53.856Z,28.50
2018-02-21T15:06:55.191Z,25.20
2018-02-21T15:09:56.534Z,26.37
2018-02-21T15:12:58.616Z,27.20
2018-02-21T15:16:00.683Z,26.87
2018-02-21T15:19:02.027Z,30.67
2018-02-21T15:22:03.323Z,33.40
2018-02-21T15:25:04.660Z,30.10
2018-02-21T15:28:05.976Z,31.17
2018-02-21T15:31:07.349Z,31.00
2018-02-21T15:34:08.649Z,29.80
2018-02-21T15:37:09.989Z,30.10
2018-02-21T15:40:12.043Z,29.50
2018-02-21T15:43:13.363Z,29.80
2018-02-21T15:46:15.418Z,29.23
2018-02-21T15:49:16.746Z,29.47
2018-02-21T15:52:18.802Z,29.63
2018-02-21T15:55:20.150Z,27.90
2018-02-21T15:58:21.470Z,25.70
2018-02-21T16:01:22.806Z,28.60
2018-02-21T16:04:24.119Z,25.40
2018-02-21T16:07:25.468Z,25.27
2018-02-21T16:10:26.784Z,24.77
2018-02-21T16:13:28.107Z,26.93
2018-02-21T16:16:30.155Z,25.87
2018-02-21T16:19:31.514Z,25.57
2018-02-21T16:22:32.834Z,25.40
2018-02-21T16:25:34.183Z,26.40
2018-02-21T16:28:35.494Z,22.33
2018-02-21T16:31:36.863Z,27.80
2018-02-21T16:34:38.159Z,27.37
2018-02-21T16:37:39.492Z,25.73
2018-02-21T16:40:40.807Z,25.83
2018-02-21T16:43:43.100Z,26.60
2018-02-21T16:46:44.446Z,28.03
2018-02-21T16:49:45.828Z,25.97
2018-02-21T16:52:47.227Z,27.53
2018-02-21T16:55:48.572Z,26.33
2018-02-21T16:58:50.673Z,49.10
2018-02-21T17:01:52.824Z,30.80
2018-02-21T17:04:54.177Z,29.13
2018-02-21T17:07:55.520Z,28.67
2018-02-21T17:10:56.854Z,30.53
2018-02-21T17:13:58.168Z,30.80
2018-02-21T17:16:59.556Z,30.67
2018-02-21T17:20:01.006Z,28.50
2018-02-21T17:23:02.370Z,27.27
2018-02-21T17:26:04.352Z,27.50
2018-02-21T17:29:06.953Z,27.90
2018-02-21T17:32:08.922Z,27.60
2018-02-21T17:35:10.872Z,29.57
2018-02-21T17:38:12.782Z,28.73
2018-02-21T17:41:20.391Z,27.50
2018-02-21T17:44:23.052Z,27.47
2018-02-21T17:47:25.296Z,27.60
2018-02-21T17:50:27.966Z,28.10
2018-02-21T17:53:30.441Z,27.00
2018-02-21T17:56:33.056Z,29.37
2018-02-21T17:59:35.122Z,28.13
2018-02-21T18:02:36.606Z,26.13
2018-02-21T18:05:37.934Z,27.97
2018-02-21T18:08:40.025Z,26.37
2018-02-21T18:11:42.180Z,25.50
2018-02-21T18:14:43.559Z,27.10
2018-02-21T18:17:45.350Z,27.50
2018-02-21T18:20:46.767Z,25.77
2018-02-21T18:23:48.114Z,25.23
2018-02-21T18:26:49.511Z,25.10
2018-02-21T18:29:50.845Z,25.80
2018-02-21T18:32:52.188Z,25.90
2018-02-21T18:35:53.550Z,25.80
2018-02-21T18:38:55.240Z,25.17
2018-02-21T18:41:56.544Z,25.40
2018-02-21T18:44:58.651Z,22.53
2018-02-21T18:48:00.733Z,23.00
2018-02-21T18:51:02.060Z,22.47
2018-02-21T18:54:03.490Z,23.80
2018-02-21T19:00:51.287Z,23.33
2018-02-21T19:03:53.405Z,21.10
2018-02-21T19:06:55.510Z,20.83
2018-02-21T19:09:57.123Z,21.83
2018-02-21T19:12:58.412Z,22.07
2018-02-21T19:15:59.744Z,19.93
2018-02-21T19:19:01.047Z,21.13
2018-02-21T19:22:02.357Z,21.73
2018-02-21T19:25:03.700Z,22.30
2018-02-21T19:28:05.095Z,21.27
2018-02-21T19:31:07.211Z,19.40
2018-02-21T19:34:08.647Z,20.30
2018-02-21T19:37:09.976Z,19.37
2018-02-21T19:40:11.392Z,20.10
2018-02-21T19:43:12.748Z,22.60
2018-02-21T19:46:14.091Z,19.83
2018-02-21T19:49:15.475Z,20.30
2018-02-21T19:52:16.861Z,40.80
2018-02-21T19:55:18.369Z,27.40
2018-02-21T19:58:20.505Z,29.60
2018-02-21T20:01:21.842Z,23.33
2018-02-21T20:04:23.180Z,22.90
2018-02-21T20:07:24.539Z,21.43
2018-02-21T20:10:26.665Z,21.03
2018-02-21T20:13:28.002Z,19.13
2018-02-21T20:16:30.060Z,18.53
2018-02-21T20:19:31.706Z,19.90
2018-02-21T20:22:33.065Z,20.20
2018-02-21T20:25:34.462Z,20.87
2018-02-21T20:28:35.794Z,22.97
2018-02-21T20:31:37.703Z,25.00
2018-02-21T20:34:39.022Z,21.30
2018-02-21T20:37:40.352Z,20.67
2018-02-21T20:40:41.716Z,23.63
2018-02-21T20:43:43.821Z,27.67
2018-02-21T20:46:45.122Z,29.10
2018-02-21T20:49:46.396Z,29.63
2018-02-21T20:52:47.773Z,28.87
2018-02-21T20:55:49.144Z,31.30
2018-02-21T20:58:50.479Z,29.93
2018-02-21T21:01:51.987Z,28.37
2018-02-21T21:04:54.031Z,25.90
2018-02-21T21:07:55.705Z,26.40
2018-02-21T21:10:57.027Z,23.20
2018-02-21T21:13:58.340Z,21.73
2018-02-21T21:16:59.712Z,22.77
2018-02-21T21:20:00.996Z,20.93
2018-02-21T21:23:03.122Z,22.60
2018-02-21T21:26:04.430Z,20.10
2018-02-21T21:29:05.827Z,20.90
2018-02-21T21:32:07.964Z,20.23
2018-02-21T21:35:10.121Z,19.80
2018-02-21T21:38:11.533Z,19.80
2018-02-21T21:41:12.963Z,21.10
2018-02-21T21:44:14.395Z,36.00
2018-02-21T21:47:16.658Z,22.20
2018-02-21T21:50:18.055Z,21.37
2018-02-21T21:53:19.482Z,21.50
2018-02-21T21:56:20.891Z,21.40
2018-02-21T21:59:22.346Z,23.07
2018-02-21T22:02:24.553Z,20.87
2018-02-21T22:05:26.273Z,21.17
2018-02-21T22:08:30.393Z,20.97
2018-02-21T22:11:32.734Z,21.43
2018-02-21T22:14:34.130Z,22.43
2018-02-21T22:17:35.451Z,21.60
2018-02-21T22:20:37.511Z,22.27
2018-02-21T22:23:39.080Z,19.73
2018-02-21T22:26:40.407Z,22.13
2018-02-21T22:29:41.833Z,22.63
2018-02-21T22:32:43.902Z,22.23
2018-02-21T22:35:45.419Z,22.30
2018-02-21T22:38:46.809Z,22.37
2018-02-21T22:41:48.122Z,22.83
2018-02-21T22:44:54.191Z,22.13
2018-02-21T22:47:55.520Z,22.33
2018-02-21T22:50:56.828Z,21.73
2018-02-21T22:53:58.954Z,21.90
2018-02-21T22:57:00.270Z,20.03
2018-02-21T23:00:02.357Z,22.20
2018-02-21T23:03:03.742Z,21.23
2018-02-21T23:06:05.233Z,22.40
2018-02-21T23:09:07.203Z,22.20
2018-02-21T23:12:10.570Z,20.37
2018-02-21T23:15:12.294Z,21.60
2018-02-21T23:18:13.692Z,20.70
2018-02-21T23:21:14.985Z,22.20
2018-02-21T23:24:17.090Z,21.40
2018-02-21T23:27:18.445Z,21.63
2018-02-21T23:30:20.482Z,21.23
2018-02-21T23:33:22.059Z,21.30
2018-02-21T23:36:23.493Z,22.47
2018-02-21T23:39:24.849Z,21.90
2018-02-21T23:42:26.247Z,21.57
2018-02-21T23:45:27.562Z,21.57
2018-02-21T23:48:28.939Z,20.43
2018-02-21T23:51:30.328Z,20.70
2018-02-21T23:54:31.652Z,21.47
2018-02-21T23:57:32.966Z,21.23
